createdAt,value
2018-10-21T00:00:57.311Z,69.38
2018-10-21T00:01:57.295Z,68.90
2018-10-21T00:02:57.310Z,69.52
2018-10-21T00:03:57.287Z,69.62
2018-10-21T00:04:57.265Z,69.83
2018-10-21T00:05:57.254Z,69.42
2018-10-21T00:06:57.372Z,69.52
2018-10-21T00:07:57.232Z,69.52
2018-10-21T00:08:57.254Z,69.62
2018-10-21T00:09:57.210Z,69.52
2018-10-21T00:10:57.201Z,69.93
2018-10-21T00:11:57.189Z,70.04
2018-10-21T00:12:57.177Z,69.96
2018-10-21T00:13:57.186Z,69.86
2018-10-21T00:14:57.171Z,69.96
2018-10-21T00:15:57.154Z,69.42
2018-10-21T00:16:57.137Z,69.73
2018-10-21T00:17:57.125Z,69.96
2018-10-21T00:18:57.118Z,69.86
2018-10-21T00:19:57.117Z,70.07
2018-10-21T00:20:57.153Z,69.76
2018-10-21T00:21:57.084Z,69.96
2018-10-21T00:22:57.072Z,70.07
2018-10-21T00:23:57.071Z,69.76
2018-10-21T00:24:57.086Z,69.96
2018-10-21T00:25:57.039Z,70.07
2018-10-21T00:26:57.067Z,70.07
2018-10-21T00:27:57.016Z,69.96
2018-10-21T00:28:57.006Z,69.96
2018-10-21T00:29:57.015Z,69.65
2018-10-21T00:30:56.985Z,69.76
2018-10-21T00:31:56.974Z,69.76
2018-10-21T00:32:57.008Z,69.86
2018-10-21T00:33:56.955Z,69.96
2018-10-21T00:34:57.350Z,69.86
2018-10-21T00:35:56.929Z,69.76
2018-10-21T00:36:56.922Z,70.17
2018-10-21T00:37:56.908Z,69.76
2018-10-21T00:38:56.941Z,69.65
2018-10-21T00:39:56.902Z,69.96
2018-10-21T00:40:56.876Z,69.89
2018-10-21T00:41:56.865Z,70.10
2018-10-21T00:42:56.865Z,69.86
2018-10-21T00:43:56.844Z,70.00
2018-10-21T00:44:56.883Z,70.10
2018-10-21T00:45:56.836Z,69.59
2018-10-21T00:46:56.817Z,69.79
2018-10-21T00:47:56.801Z,69.69
2018-10-21T00:48:56.790Z,69.79
2018-10-21T00:49:56.779Z,69.69
2018-10-21T00:50:56.824Z,69.89
2018-10-21T00:51:56.761Z,69.79
2018-10-21T00:52:56.749Z,69.69
2018-10-21T00:53:56.739Z,69.79
2018-10-21T00:54:56.742Z,69.89
2018-10-21T00:55:56.731Z,69.89
2018-10-21T00:56:56.719Z,69.89
2018-10-21T00:57:56.693Z,69.69
2018-10-21T00:58:56.705Z,70.31
2018-10-21T00:59:56.670Z,69.59
2018-10-21T01:00:56.847Z,69.59
2018-10-21T01:01:56.653Z,69.79
2018-10-21T01:02:56.659Z,69.69
2018-10-21T01:03:56.645Z,70.13
2018-10-21T01:04:56.619Z,69.82
2018-10-21T01:05:56.618Z,69.79
2018-10-21T01:06:56.610Z,69.82
2018-10-21T01:07:56.584Z,69.72
2018-10-21T01:08:56.590Z,69.72
2018-10-21T01:09:56.565Z,69.82
2018-10-21T01:10:56.553Z,69.72
2018-10-21T01:11:56.560Z,69.51
2018-10-21T01:12:56.532Z,69.82
2018-10-21T01:13:56.520Z,69.72
2018-10-21T01:14:56.541Z,70.13
2018-10-21T01:15:56.500Z,70.23
2018-10-21T01:16:56.505Z,70.44
2018-10-21T01:17:56.476Z,70.13
2018-10-21T01:18:57.307Z,69.93
2018-10-21T01:19:56.455Z,70.13
2018-10-21T01:20:56.470Z,70.54
2018-10-21T01:21:56.447Z,70.34
2018-10-21T01:22:56.438Z,69.82
2018-10-21T01:23:56.416Z,70.44
2018-10-21T01:24:56.402Z,70.03
2018-10-21T01:25:56.390Z,70.03
2018-10-21T01:26:56.442Z,70.13
2018-10-21T01:27:57.301Z,69.93
2018-10-21T01:28:56.360Z,70.23
2018-10-21T01:29:56.354Z,70.37
2018-10-21T01:30:56.336Z,70.03
2018-10-21T01:31:56.349Z,70.13
2018-10-21T01:32:56.346Z,70.34
2018-10-21T01:33:56.317Z,70.03
2018-10-21T01:34:56.304Z,70.34
2018-10-21T01:35:56.286Z,69.93
2018-10-21T01:36:56.311Z,70.44
2018-10-21T01:37:56.451Z,69.93
2018-10-21T01:38:56.276Z,70.54
2018-10-21T01:39:56.241Z,70.06
2018-10-21T01:40:56.236Z,70.37
2018-10-21T01:41:56.230Z,70.03
2018-10-21T01:42:56.219Z,70.68
2018-10-21T01:43:56.215Z,70.47
2018-10-21T01:44:56.211Z,70.27
2018-10-21T01:45:56.176Z,70.47
2018-10-21T01:46:56.167Z,70.47
2018-10-21T01:47:56.186Z,70.57
2018-10-21T01:48:56.150Z,70.57
2018-10-21T01:49:56.148Z,70.89
2018-10-21T01:50:56.200Z,70.78
2018-10-21T01:51:56.112Z,70.23
2018-10-21T01:52:56.846Z,69.93
2018-10-21T01:53:56.371Z,70.47
2018-10-21T01:54:56.077Z,70.47
2018-10-21T01:55:56.067Z,70.57
2018-10-21T01:56:56.088Z,70.06
2018-10-21T01:57:56.045Z,70.37
2018-10-21T01:58:56.053Z,70.68
2018-10-21T01:59:56.022Z,70.06
2018-10-21T02:00:56.013Z,70.78
2018-10-21T02:01:56.797Z,70.37
2018-10-21T02:02:56.053Z,70.27
2018-10-21T02:03:55.994Z,70.57
2018-10-21T02:04:55.972Z,70.17
2018-10-21T02:05:55.971Z,69.96
2018-10-21T02:06:55.948Z,70.68
2018-10-21T02:07:55.941Z,70.47
2018-10-21T02:08:55.947Z,70.57
2018-10-21T02:09:55.919Z,70.47
2018-10-21T02:10:55.904Z,70.37
2018-10-21T02:11:55.893Z,70.57
2018-10-21T02:12:55.883Z,70.92
2018-10-21T02:13:55.885Z,70.51
2018-10-21T02:14:55.877Z,70.40
2018-10-21T02:15:57.306Z,70.72
2018-10-21T02:16:55.840Z,70.51
2018-10-21T02:17:55.879Z,70.78
2018-10-21T02:18:55.840Z,70.82
2018-10-21T02:19:55.822Z,70.72
2018-10-21T02:20:55.823Z,70.72
2018-10-21T02:21:55.785Z,70.82
2018-10-21T02:22:55.775Z,70.92
2018-10-21T02:23:55.774Z,70.51
2018-10-21T02:24:55.753Z,70.57
2018-10-21T02:25:55.754Z,70.61
2018-10-21T02:26:55.816Z,70.82
2018-10-21T02:27:55.719Z,70.72
2018-10-21T02:28:55.858Z,70.92
2018-10-21T02:29:55.698Z,70.61
2018-10-21T02:30:55.698Z,70.82
2018-10-21T02:31:55.676Z,71.02
2018-10-21T02:32:55.746Z,70.72
2018-10-21T02:33:55.658Z,70.82
2018-10-21T02:34:55.644Z,70.92
2018-10-21T02:35:55.644Z,70.51
2018-10-21T02:36:55.622Z,70.92
2018-10-21T02:37:55.612Z,70.72
2018-10-21T02:38:55.654Z,71.33
2018-10-21T02:39:55.593Z,71.23
2018-10-21T02:40:55.590Z,71.02
2018-10-21T02:41:55.598Z,70.92
2018-10-21T02:42:55.558Z,71.02
2018-10-21T02:43:55.548Z,71.23
2018-10-21T02:44:55.536Z,71.12
2018-10-21T02:45:55.546Z,71.02
2018-10-21T02:46:55.515Z,70.82
2018-10-21T02:47:55.503Z,70.75
2018-10-21T02:48:55.490Z,71.33
2018-10-21T02:49:55.480Z,71.26
2018-10-21T02:50:55.480Z,71.06
2018-10-21T02:51:55.470Z,71.06
2018-10-21T02:52:55.452Z,71.26
2018-10-21T02:53:55.440Z,70.95
2018-10-21T02:54:55.427Z,70.95
2018-10-21T02:55:55.423Z,70.95
2018-10-21T02:56:55.438Z,71.16
2018-10-21T02:57:55.407Z,70.95
2018-10-21T02:58:55.396Z,70.95
2018-10-21T02:59:55.372Z,71.16
2018-10-21T03:00:55.361Z,71.06
2018-10-21T03:01:55.352Z,71.26
2018-10-21T03:02:55.370Z,71.16
2018-10-21T03:03:55.330Z,71.26
2018-10-21T03:04:55.321Z,70.85
2018-10-21T03:05:55.308Z,71.78
2018-10-21T03:06:55.312Z,70.75
2018-10-21T03:07:55.300Z,70.95
2018-10-21T03:08:55.292Z,70.75
2018-10-21T03:09:55.266Z,70.95
2018-10-21T03:10:55.254Z,70.85
2018-10-21T03:11:55.262Z,71.47
2018-10-21T03:12:55.233Z,71.37
2018-10-21T03:13:55.224Z,70.95
2018-10-21T03:14:55.281Z,71.16
2018-10-21T03:15:55.201Z,70.85
2018-10-21T03:16:55.205Z,71.37
2018-10-21T03:17:55.192Z,70.85
2018-10-21T03:18:55.169Z,71.16
2018-10-21T03:19:55.159Z,70.64
2018-10-21T03:20:55.157Z,71.16
2018-10-21T03:21:55.137Z,70.85
2018-10-21T03:22:55.142Z,70.95
2018-10-21T03:23:55.116Z,71.26
2018-10-21T03:24:55.113Z,71.30
2018-10-21T03:25:55.099Z,71.30
2018-10-21T03:26:55.097Z,71.47
2018-10-21T03:27:55.094Z,71.57
2018-10-21T03:28:55.062Z,71.50
2018-10-21T03:29:55.051Z,71.47
2018-10-21T03:30:55.043Z,70.98
2018-10-21T03:31:55.030Z,71.26
2018-10-21T03:32:55.101Z,71.71
2018-10-21T03:33:55.102Z,70.88
2018-10-21T03:34:54.994Z,71.40
2018-10-21T03:35:55.001Z,71.26
2018-10-21T03:36:55.796Z,70.88
2018-10-21T03:37:54.967Z,70.88
2018-10-21T03:38:54.960Z,71.61
2018-10-21T03:39:54.985Z,71.37
2018-10-21T03:40:54.928Z,71.50
2018-10-21T03:41:54.919Z,71.40
2018-10-21T03:42:54.954Z,71.30
2018-10-21T03:43:55.344Z,71.50
2018-10-21T03:44:54.885Z,71.19
2018-10-21T03:45:54.887Z,71.09
2018-10-21T03:46:54.864Z,71.09
2018-10-21T03:47:54.852Z,71.09
2018-10-21T03:48:55.346Z,70.67
2018-10-21T03:49:54.830Z,70.67
2018-10-21T03:50:54.819Z,70.98
2018-10-21T03:51:54.820Z,71.19
2018-10-21T03:52:54.816Z,71.09
2018-10-21T03:53:54.820Z,70.67
2018-10-21T03:54:54.775Z,71.19
2018-10-21T03:55:54.772Z,70.67
2018-10-21T03:56:54.769Z,70.67
2018-10-21T03:57:54.788Z,70.67
2018-10-21T03:58:54.732Z,70.67
2018-10-21T03:59:54.735Z,71.40
2018-10-21T04:00:54.712Z,70.67
2018-10-21T04:01:54.701Z,71.30
2018-10-21T04:02:54.690Z,71.40
2018-10-21T04:03:54.702Z,70.98
2018-10-21T04:04:54.679Z,71.50
2018-10-21T04:05:54.677Z,71.50
2018-10-21T04:06:54.645Z,71.50
2018-10-21T04:07:54.635Z,71.43
2018-10-21T04:08:54.622Z,71.43
2018-10-21T04:09:54.631Z,71.64
2018-10-21T04:10:54.602Z,71.61
2018-10-21T04:11:54.591Z,71.33
2018-10-21T04:12:54.581Z,71.64
2018-10-21T04:13:54.569Z,71.33
2018-10-21T04:14:54.848Z,71.64
2018-10-21T04:15:54.555Z,71.74
2018-10-21T04:16:54.537Z,71.64
2018-10-21T04:17:54.526Z,71.84
2018-10-21T04:18:54.520Z,71.64
2018-10-21T04:19:54.513Z,71.12
2018-10-21T04:20:54.506Z,71.33
2018-10-21T04:21:54.511Z,71.43
2018-10-21T04:22:54.470Z,71.33
2018-10-21T04:23:54.461Z,71.53
2018-10-21T04:24:54.448Z,71.22
2018-10-21T04:25:54.450Z,71.43
2018-10-21T04:26:54.427Z,71.53
2018-10-21T04:27:54.425Z,71.22
2018-10-21T04:28:54.409Z,71.22
2018-10-21T04:29:54.395Z,71.30
2018-10-21T04:30:54.395Z,71.84
2018-10-21T04:31:54.375Z,71.22
2018-10-21T04:32:54.363Z,71.43
2018-10-21T04:33:54.397Z,71.12
2018-10-21T04:34:54.343Z,71.22
2018-10-21T04:35:54.343Z,71.33
2018-10-21T04:36:54.356Z,71.12
2018-10-21T04:37:55.296Z,71.33
2018-10-21T04:38:54.299Z,71.22
2018-10-21T04:39:54.313Z,71.64
2018-10-21T04:40:54.294Z,71.43
2018-10-21T04:41:54.267Z,71.12
2018-10-21T04:42:54.256Z,71.74
2018-10-21T04:43:54.245Z,71.74
2018-10-21T04:44:54.233Z,71.12
2018-10-21T04:45:54.326Z,71.74
2018-10-21T04:46:54.372Z,71.53
2018-10-21T04:47:54.201Z,71.33
2018-10-21T04:48:54.190Z,71.12
2018-10-21T04:49:54.179Z,71.74
2018-10-21T04:50:54.173Z,71.64
2018-10-21T04:51:54.182Z,71.33
2018-10-21T04:52:54.147Z,71.33
2018-10-21T04:53:54.139Z,71.12
2018-10-21T04:54:54.125Z,71.33
2018-10-21T04:55:54.122Z,71.02
2018-10-21T04:56:54.115Z,71.57
2018-10-21T04:57:54.103Z,71.15
2018-10-21T04:58:54.082Z,71.33
2018-10-21T04:59:54.071Z,71.64
2018-10-21T05:00:54.802Z,71.26
2018-10-21T05:01:54.072Z,71.67
2018-10-21T05:02:54.040Z,71.78
2018-10-21T05:03:54.035Z,71.47
2018-10-21T05:04:54.026Z,71.33
2018-10-21T05:05:54.007Z,71.57
2018-10-21T05:06:53.995Z,71.36
2018-10-21T05:07:53.993Z,71.26
2018-10-21T05:08:53.995Z,71.22
2018-10-21T05:09:54.006Z,71.33
2018-10-21T05:10:53.953Z,71.43
2018-10-21T05:11:53.939Z,71.67
2018-10-21T05:12:53.945Z,71.43
2018-10-21T05:13:53.925Z,71.74
2018-10-21T05:14:53.907Z,71.05
2018-10-21T05:15:53.912Z,71.36
2018-10-21T05:16:53.888Z,70.84
2018-10-21T05:17:53.889Z,71.26
2018-10-21T05:18:53.867Z,70.74
2018-10-21T05:19:53.857Z,71.57
2018-10-21T05:20:53.843Z,71.36
2018-10-21T05:21:53.875Z,70.84
2018-10-21T05:22:53.918Z,71.57
2018-10-21T05:23:53.872Z,71.47
2018-10-21T05:24:54.792Z,71.47
2018-10-21T05:25:53.790Z,71.47
2018-10-21T05:26:53.784Z,71.57
2018-10-21T05:27:53.822Z,71.02
2018-10-21T05:28:53.757Z,71.15
2018-10-21T05:29:53.745Z,71.88
2018-10-21T05:30:53.780Z,71.26
2018-10-21T05:31:53.724Z,71.47
2018-10-21T05:32:53.712Z,71.26
2018-10-21T05:33:53.720Z,71.47
2018-10-21T05:34:53.693Z,71.78
2018-10-21T05:35:53.678Z,71.67
2018-10-21T05:36:53.673Z,71.47
2018-10-21T05:37:53.726Z,71.26
2018-10-21T05:38:53.659Z,71.78
2018-10-21T05:39:53.642Z,71.36
2018-10-21T05:40:53.625Z,71.78
2018-10-21T05:41:53.615Z,71.88
2018-10-21T05:42:53.609Z,71.26
2018-10-21T05:43:53.619Z,71.36
2018-10-21T05:44:53.582Z,71.26
2018-10-21T05:45:53.606Z,71.26
2018-10-21T05:46:53.618Z,71.26
2018-10-21T05:47:53.550Z,71.15
2018-10-21T05:48:53.539Z,71.05
2018-10-21T05:49:53.551Z,70.95
2018-10-21T05:50:53.517Z,70.95
2018-10-21T05:51:53.517Z,71.29
2018-10-21T05:52:53.498Z,70.95
2018-10-21T05:53:53.488Z,71.15
2018-10-21T05:54:53.841Z,71.98
2018-10-21T05:55:53.476Z,71.60
2018-10-21T05:56:53.457Z,70.95
2018-10-21T05:57:53.452Z,71.60
2018-10-21T05:58:53.431Z,71.67
2018-10-21T05:59:53.432Z,71.29
2018-10-21T06:00:53.409Z,71.29
2018-10-21T06:01:53.397Z,71.29
2018-10-21T06:02:53.434Z,71.08
2018-10-21T06:03:53.403Z,70.98
2018-10-21T06:04:53.841Z,71.29
2018-10-21T06:05:53.369Z,71.29
2018-10-21T06:06:53.344Z,70.98
2018-10-21T06:07:53.335Z,71.29
2018-10-21T06:08:53.321Z,71.29
2018-10-21T06:09:53.325Z,71.81
2018-10-21T06:10:53.300Z,70.98
2018-10-21T06:11:53.292Z,71.29
2018-10-21T06:12:53.277Z,71.29
2018-10-21T06:13:53.268Z,71.08
2018-10-21T06:14:53.278Z,71.60
2018-10-21T06:15:53.337Z,72.43
2018-10-21T06:16:53.233Z,71.60
2018-10-21T06:17:53.225Z,70.98
2018-10-21T06:18:53.213Z,71.60
2018-10-21T06:19:53.207Z,71.60
2018-10-21T06:20:53.203Z,71.91
2018-10-21T06:21:53.193Z,71.60
2018-10-21T06:22:53.168Z,70.98
2018-10-21T06:23:53.159Z,71.70
2018-10-21T06:24:53.822Z,71.29
2018-10-21T06:25:53.158Z,71.50
2018-10-21T06:26:53.126Z,71.50
2018-10-21T06:27:53.126Z,71.70
2018-10-21T06:28:53.114Z,71.70
2018-10-21T06:29:53.093Z,71.91
2018-10-21T06:30:53.133Z,71.81
2018-10-21T06:31:53.087Z,71.70
2018-10-21T06:32:53.060Z,71.60
2018-10-21T06:33:53.050Z,71.81
2018-10-21T06:34:53.040Z,71.91
2018-10-21T06:35:53.029Z,71.91
2018-10-21T06:36:53.091Z,71.81
2018-10-21T06:37:53.009Z,71.33
2018-10-21T06:38:52.997Z,71.60
2018-10-21T06:39:52.986Z,71.91
2018-10-21T06:40:52.977Z,72.56
2018-10-21T06:41:52.977Z,71.91
2018-10-21T06:42:52.954Z,71.73
2018-10-21T06:43:52.946Z,71.60
2018-10-21T06:44:52.931Z,71.94
2018-10-21T06:45:52.921Z,72.12
2018-10-21T06:46:52.927Z,72.46
2018-10-21T06:47:52.899Z,73.15
2018-10-21T06:48:52.892Z,73.29
2018-10-21T06:49:52.878Z,72.67
2018-10-21T06:50:52.879Z,73.29
2018-10-21T06:51:52.870Z,73.05
2018-10-21T06:52:52.845Z,73.19
2018-10-21T06:53:52.836Z,72.94
2018-10-21T06:54:52.832Z,72.94
2018-10-21T06:55:52.812Z,72.98
2018-10-21T06:56:52.913Z,72.36
2018-10-21T06:57:52.881Z,72.77
2018-10-21T06:58:52.780Z,72.94
2018-10-21T06:59:52.772Z,72.56
2018-10-21T07:00:52.764Z,72.85
2018-10-21T07:01:52.759Z,72.53
2018-10-21T07:02:52.754Z,72.56
2018-10-21T07:03:52.727Z,72.64
2018-10-21T07:04:52.767Z,72.67
2018-10-21T07:05:52.726Z,73.08
2018-10-21T07:06:52.695Z,72.94
2018-10-21T07:07:52.700Z,72.98
2018-10-21T07:08:52.672Z,72.98
2018-10-21T07:09:52.662Z,73.05
2018-10-21T07:10:52.653Z,73.08
2018-10-21T07:11:52.641Z,73.08
2018-10-21T07:12:52.631Z,72.74
2018-10-21T07:13:52.633Z,72.74
2018-10-21T07:14:52.608Z,72.94
2018-10-21T07:15:52.706Z,72.94
2018-10-21T07:16:52.649Z,72.94
2018-10-21T07:17:52.585Z,72.85
2018-10-21T07:18:52.578Z,73.36
2018-10-21T07:19:52.554Z,73.36
2018-10-21T07:20:52.685Z,73.57
2018-10-21T07:21:52.534Z,73.77
2018-10-21T07:22:52.540Z,73.57
2018-10-21T07:23:52.509Z,73.98
2018-10-21T07:24:52.498Z,73.77
2018-10-21T07:25:52.486Z,73.67
2018-10-21T07:26:52.482Z,73.77
2018-10-21T07:27:52.521Z,74.91
2018-10-21T07:28:52.465Z,74.71
2018-10-21T07:29:52.442Z,74.60
2018-10-21T07:30:52.433Z,74.40
2018-10-21T07:31:52.422Z,74.91
2018-10-21T07:32:52.410Z,75.12
2018-10-21T07:33:52.413Z,75.43
2018-10-21T07:34:53.287Z,75.29
2018-10-21T07:35:52.378Z,75.60
2018-10-21T07:36:52.374Z,75.70
2018-10-21T07:37:52.356Z,76.12
2018-10-21T07:38:52.359Z,76.12
2018-10-21T07:39:52.336Z,76.53
2018-10-21T07:40:52.323Z,76.12
2018-10-21T07:41:52.312Z,76.84
2018-10-21T07:42:52.302Z,76.84
2018-10-21T07:43:52.309Z,76.84
2018-10-21T07:44:52.294Z,76.74
2018-10-21T07:45:52.269Z,77.15
2018-10-21T07:46:52.259Z,77.47
2018-10-21T07:47:52.246Z,77.47
2018-10-21T07:48:52.237Z,77.15
2018-10-21T07:49:52.345Z,77.26
2018-10-21T07:50:52.215Z,77.05
2018-10-21T07:51:52.211Z,77.05
2018-10-21T07:52:52.193Z,77.43
2018-10-21T07:53:52.187Z,77.43
2018-10-21T07:54:52.187Z,77.33
2018-10-21T07:55:52.247Z,77.33
2018-10-21T07:56:52.150Z,77.33
2018-10-21T07:57:52.138Z,77.01
2018-10-21T07:58:52.127Z,77.43
2018-10-21T07:59:52.142Z,77.12
2018-10-21T08:00:52.132Z,77.53
2018-10-21T08:01:52.794Z,77.22
2018-10-21T08:02:52.083Z,77.12
2018-10-21T08:03:52.072Z,77.22
2018-10-21T08:04:52.067Z,77.12
2018-10-21T08:05:52.072Z,77.12
2018-10-21T08:06:52.041Z,76.81
2018-10-21T08:07:52.030Z,77.43
2018-10-21T08:08:52.023Z,77.01
2018-10-21T08:09:52.008Z,77.43
2018-10-21T08:10:52.009Z,77.12
2018-10-21T08:11:52.008Z,76.87
2018-10-21T08:12:51.979Z,77.50
2018-10-21T08:13:51.964Z,77.08
2018-10-21T08:14:52.081Z,76.87
2018-10-21T08:15:51.953Z,76.67
2018-10-21T08:16:51.934Z,77.19
2018-10-21T08:17:51.952Z,76.46
2018-10-21T08:18:51.913Z,76.77
2018-10-21T08:19:51.899Z,76.64
2018-10-21T08:20:51.904Z,76.64
2018-10-21T08:21:51.877Z,76.73
2018-10-21T08:22:51.959Z,77.04
2018-10-21T08:23:51.876Z,77.15
2018-10-21T08:24:51.848Z,76.73
2018-10-21T08:25:51.869Z,77.32
2018-10-21T08:26:51.822Z,77.32
2018-10-21T08:27:51.812Z,77.84
2018-10-21T08:28:51.801Z,77.63
2018-10-21T08:29:51.789Z,77.94
2018-10-21T08:30:51.807Z,77.18
2018-10-21T08:31:51.768Z,77.11
2018-10-21T08:32:51.768Z,77.39
2018-10-21T08:33:51.753Z,77.28
2018-10-21T08:34:51.736Z,76.87
2018-10-21T08:35:51.776Z,76.56
2018-10-21T08:36:52.283Z,76.56
2018-10-21T08:37:51.704Z,76.87
2018-10-21T08:38:51.697Z,76.87
2018-10-21T08:39:51.690Z,76.84
2018-10-21T08:40:51.682Z,76.73
2018-10-21T08:41:51.844Z,76.42
2018-10-21T08:42:51.667Z,76.63
2018-10-21T08:43:51.640Z,76.94
2018-10-21T08:44:51.649Z,76.90
2018-10-21T08:45:51.673Z,76.94
2018-10-21T08:46:51.620Z,76.63
2018-10-21T08:47:51.595Z,76.42
2018-10-21T08:48:51.586Z,76.49
2018-10-21T08:49:51.624Z,76.70
2018-10-21T08:50:51.561Z,76.70
2018-10-21T08:51:51.567Z,76.90
2018-10-21T08:52:51.543Z,76.80
2018-10-21T08:53:51.539Z,76.49
2018-10-21T08:54:51.518Z,76.80
2018-10-21T08:55:51.637Z,77.01
2018-10-21T08:56:51.509Z,76.76
2018-10-21T08:57:51.503Z,76.46
2018-10-21T08:58:51.483Z,76.56
2018-10-21T08:59:51.467Z,77.28
2018-10-21T09:00:51.454Z,77.08
2018-10-21T09:01:51.489Z,77.08
2018-10-21T09:02:51.445Z,76.87
2018-10-21T09:03:51.422Z,76.87
2018-10-21T09:04:51.409Z,77.25
2018-10-21T09:05:51.409Z,77.28
2018-10-21T09:06:51.390Z,76.76
2018-10-21T09:07:51.833Z,76.83
2018-10-21T09:08:51.386Z,76.93
2018-10-21T09:09:51.414Z,77.04
2018-10-21T09:10:51.396Z,76.83
2018-10-21T09:11:51.332Z,76.83
2018-10-21T09:12:51.831Z,77.66
2018-10-21T09:13:51.326Z,77.31
2018-10-21T09:14:51.338Z,77.35
2018-10-21T09:15:51.310Z,77.51
2018-10-21T09:16:51.312Z,77.62
2018-10-21T09:17:51.322Z,77.62
2018-10-21T09:18:51.256Z,77.62
2018-10-21T09:19:51.257Z,77.21
2018-10-21T09:20:51.235Z,77.89
2018-10-21T09:21:51.227Z,77.83
2018-10-21T09:22:51.227Z,77.31
2018-10-21T09:23:51.276Z,77.83
2018-10-21T09:24:51.191Z,77.00
2018-10-21T09:25:52.288Z,77.38
2018-10-21T09:26:51.169Z,77.79
2018-10-21T09:27:51.171Z,77.93
2018-10-21T09:28:51.159Z,77.69
2018-10-21T09:29:51.139Z,77.69
2018-10-21T09:30:51.128Z,77.89
2018-10-21T09:31:51.121Z,78.10
2018-10-21T09:32:51.106Z,77.58
2018-10-21T09:33:51.120Z,78.00
2018-10-21T09:34:51.082Z,78.17
2018-10-21T09:35:51.072Z,77.75
2018-10-21T09:36:51.062Z,77.86
2018-10-21T09:37:51.050Z,77.75
2018-10-21T09:38:51.043Z,78.06
2018-10-21T09:39:51.044Z,78.06
2018-10-21T09:40:51.027Z,77.96
2018-10-21T09:41:51.008Z,78.06
2018-10-21T09:42:50.997Z,77.86
2018-10-21T09:43:50.984Z,78.06
2018-10-21T09:44:51.418Z,77.92
2018-10-21T09:45:50.973Z,77.82
2018-10-21T09:46:50.954Z,77.72
2018-10-21T09:47:50.942Z,78.03
2018-10-21T09:48:50.931Z,77.82
2018-10-21T09:49:51.015Z,77.72
2018-10-21T09:50:50.929Z,78.03
2018-10-21T09:51:50.898Z,78.03
2018-10-21T09:52:50.888Z,78.03
2018-10-21T09:53:50.895Z,77.72
2018-10-21T09:54:50.869Z,77.72
2018-10-21T09:55:50.864Z,78.09
2018-10-21T09:56:50.846Z,77.99
2018-10-21T09:57:50.833Z,78.03
2018-10-21T09:58:50.823Z,78.20
2018-10-21T09:59:51.781Z,77.89
2018-10-21T10:00:50.819Z,77.78
2018-10-21T10:01:50.788Z,77.78
2018-10-21T10:02:50.777Z,78.36
2018-10-21T10:03:50.790Z,78.09
2018-10-21T10:04:50.771Z,77.48
2018-10-21T10:05:50.757Z,78.09
2018-10-21T10:06:51.282Z,78.06
2018-10-21T10:07:50.723Z,78.06
2018-10-21T10:08:50.759Z,78.06
2018-10-21T10:09:50.701Z,77.55
2018-10-21T10:10:50.705Z,77.95
2018-10-21T10:11:50.677Z,77.65
2018-10-21T10:12:50.668Z,78.06
2018-10-21T10:13:50.658Z,77.81
2018-10-21T10:14:50.649Z,78.02
2018-10-21T10:15:50.654Z,77.71
2018-10-21T10:16:50.624Z,77.92
2018-10-21T10:17:50.737Z,77.81
2018-10-21T10:18:50.602Z,77.92
2018-10-21T10:19:50.596Z,77.71
2018-10-21T10:20:50.602Z,77.81
2018-10-21T10:21:50.592Z,77.92
2018-10-21T10:22:50.559Z,77.88
2018-10-21T10:23:50.554Z,78.02
2018-10-21T10:24:50.538Z,77.88
2018-10-21T10:25:50.584Z,77.88
2018-10-21T10:26:50.518Z,77.88
2018-10-21T10:27:50.510Z,77.58
2018-10-21T10:28:50.493Z,76.75
2018-10-21T10:29:51.311Z,77.06
2018-10-21T10:30:50.473Z,77.44
2018-10-21T10:31:50.477Z,77.88
2018-10-21T10:32:50.455Z,77.64
2018-10-21T10:33:50.440Z,77.44
2018-10-21T10:34:50.429Z,77.64
2018-10-21T10:35:50.421Z,77.03
2018-10-21T10:36:51.781Z,76.82
2018-10-21T10:37:50.401Z,77.03
2018-10-21T10:38:50.390Z,77.03
2018-10-21T10:39:50.384Z,77.44
2018-10-21T10:40:50.365Z,77.44
2018-10-21T10:41:50.476Z,77.74
2018-10-21T10:42:50.354Z,77.54
2018-10-21T10:43:50.333Z,77.13
2018-10-21T10:44:50.322Z,77.20
2018-10-21T10:45:50.309Z,77.44
2018-10-21T10:46:50.311Z,76.99
2018-10-21T10:47:50.301Z,77.20
2018-10-21T10:48:50.277Z,77.71
2018-10-21T10:49:50.266Z,77.61
2018-10-21T10:50:50.258Z,77.29
2018-10-21T10:51:50.246Z,76.99
2018-10-21T10:52:50.296Z,76.99
2018-10-21T10:53:50.223Z,77.09
2018-10-21T10:54:50.213Z,77.20
2018-10-21T10:55:50.201Z,77.16
2018-10-21T10:56:50.191Z,76.75
2018-10-21T10:57:50.202Z,77.57
2018-10-21T10:58:50.169Z,76.85
2018-10-21T10:59:50.337Z,76.75
2018-10-21T11:00:50.148Z,76.95
2018-10-21T11:01:50.136Z,77.16
2018-10-21T11:02:50.140Z,77.36
2018-10-21T11:03:51.290Z,77.06
2018-10-21T11:04:50.105Z,77.06
2018-10-21T11:05:50.104Z,77.26
2018-10-21T11:06:50.081Z,77.26
2018-10-21T11:07:50.072Z,77.06
2018-10-21T11:08:50.072Z,76.51
2018-10-21T11:09:50.781Z,76.40
2018-10-21T11:10:50.334Z,76.61
2018-10-21T11:11:50.031Z,76.20
2018-10-21T11:12:50.017Z,76.51
2018-10-21T11:13:50.025Z,76.51
2018-10-21T11:14:50.004Z,76.61
2018-10-21T11:15:49.984Z,76.81
2018-10-21T11:16:49.977Z,76.10
2018-10-21T11:17:49.963Z,76.31
2018-10-21T11:18:50.825Z,76.31
2018-10-21T11:19:49.942Z,76.40
2018-10-21T11:20:49.934Z,76.61
2018-10-21T11:21:50.014Z,76.37
2018-10-21T11:22:49.943Z,76.78
2018-10-21T11:23:49.913Z,76.57
2018-10-21T11:24:49.886Z,76.37
2018-10-21T11:25:49.876Z,76.47
2018-10-21T11:26:49.869Z,76.37
2018-10-21T11:27:49.854Z,76.17
2018-10-21T11:28:49.858Z,76.47
2018-10-21T11:29:49.845Z,75.96
2018-10-21T11:30:49.825Z,76.17
2018-10-21T11:31:49.811Z,76.47
2018-10-21T11:32:49.815Z,76.03
2018-10-21T11:33:49.819Z,76.06
2018-10-21T11:34:49.788Z,75.82
2018-10-21T11:35:49.770Z,75.82
2018-10-21T11:36:49.864Z,75.52
2018-10-21T11:37:49.750Z,75.10
2018-10-21T11:38:49.738Z,74.90
2018-10-21T11:39:49.737Z,74.49
2018-10-21T11:40:50.298Z,75.10
2018-10-21T11:41:49.705Z,75.27
2018-10-21T11:42:49.696Z,75.07
2018-10-21T11:43:49.706Z,75.01
2018-10-21T11:44:49.689Z,74.87
2018-10-21T11:45:49.869Z,74.87
2018-10-21T11:46:49.667Z,74.46
2018-10-21T11:47:49.640Z,74.76
2018-10-21T11:48:49.639Z,74.35
2018-10-21T11:49:49.622Z,74.56
2018-10-21T11:50:49.839Z,74.35
2018-10-21T11:51:49.605Z,74.46
2018-10-21T11:52:49.587Z,74.05
2018-10-21T11:53:49.585Z,73.94
2018-10-21T11:54:49.578Z,73.94
2018-10-21T11:55:49.571Z,74.15
2018-10-21T11:56:49.545Z,73.81
2018-10-21T11:57:49.538Z,73.74
2018-10-21T11:58:49.523Z,73.71
2018-10-21T11:59:49.522Z,73.71
2018-10-21T12:00:49.500Z,73.81
2018-10-21T12:01:49.487Z,73.71
2018-10-21T12:02:49.476Z,73.91
2018-10-21T12:03:49.466Z,73.71
2018-10-21T12:04:49.466Z,73.81
2018-10-21T12:05:49.455Z,73.91
2018-10-21T12:06:49.458Z,73.61
2018-10-21T12:07:49.424Z,73.61
2018-10-21T12:08:49.415Z,73.61
2018-10-21T12:09:49.408Z,73.61
2018-10-21T12:10:49.418Z,73.57
2018-10-21T12:11:49.379Z,73.68
2018-10-21T12:12:49.373Z,73.77
2018-10-21T12:13:49.359Z,72.96
2018-10-21T12:14:49.347Z,72.96
2018-10-21T12:15:49.335Z,72.75
2018-10-21T12:16:49.337Z,72.86
2018-10-21T12:17:50.284Z,73.88
2018-10-21T12:18:49.305Z,73.47
2018-10-21T12:19:49.349Z,73.57
2018-10-21T12:20:49.331Z,73.68
2018-10-21T12:21:49.284Z,73.68
2018-10-21T12:22:49.304Z,73.47
2018-10-21T12:23:49.250Z,73.77
2018-10-21T12:24:49.240Z,73.64
2018-10-21T12:25:49.237Z,73.54
2018-10-21T12:26:49.263Z,73.84
2018-10-21T12:27:49.787Z,73.74
2018-10-21T12:28:49.198Z,73.74
2018-10-21T12:29:49.185Z,73.54
2018-10-21T12:30:49.179Z,73.74
2018-10-21T12:31:49.179Z,73.54
2018-10-21T12:32:49.153Z,73.54
2018-10-21T12:33:49.144Z,73.74
2018-10-21T12:34:49.150Z,72.72
2018-10-21T12:35:49.121Z,72.72
2018-10-21T12:36:49.131Z,72.72
2018-10-21T12:37:49.103Z,72.69
2018-10-21T12:38:49.089Z,72.48
2018-10-21T12:39:49.083Z,72.17
2018-10-21T12:40:49.070Z,71.67
2018-10-21T12:41:49.076Z,72.17
2018-10-21T12:42:49.054Z,72.07
2018-10-21T12:43:49.037Z,72.07
2018-10-21T12:44:49.024Z,71.97
2018-10-21T12:45:49.016Z,72.48
2018-10-21T12:46:49.013Z,72.65
2018-10-21T12:47:48.998Z,72.48
2018-10-21T12:48:48.980Z,72.55
2018-10-21T12:49:48.972Z,72.38
2018-10-21T12:50:48.961Z,72.86
2018-10-21T12:51:48.964Z,72.75
2018-10-21T12:52:48.964Z,72.45